Time;durP1;ratioP1;P1;durP2;ratioP2;P2;SDS_P1;SDS_P2;PMS_P1;PMS_P2;Temp;Humidity;BMP_temperature;BMP_pressure;BME280_temperature;BME280_humidity;BME280_pressure;Samples;Min_cycle;Max_cycle;Signal;HPM_P1;HPM_P2
2024/01/30 00:00:15;;;;;;;9.20;4.43;;;-1.60;99.90;;;;;;4961599;28;20034;-79
2024/01/30 00:02:43;;;;;;;5.63;3.22;;;-1.60;99.90;;;;;;4987343;28;20602;-79
2024/01/30 00:05:08;;;;;;;6.75;3.17;;;-1.60;99.90;;;;;;4993115;28;20080;-79
2024/01/30 00:07:34;;;;;;;6.80;2.35;;;-1.60;99.90;;;;;;4958812;28;20035;-79
2024/01/30 00:10:00;;;;;;;5.25;2.00;;;-1.60;99.90;;;;;;4975903;28;20053;-79
2024/01/30 00:12:26;;;;;;;6.90;2.78;;;-1.70;99.90;;;;;;4993032;28;20026;-79
2024/01/30 00:14:52;;;;;;;7.05;2.58;;;-1.70;99.90;;;;;;4975471;28;20441;-79
2024/01/30 00:17:19;;;;;;;7.63;2.67;;;-1.70;99.90;;;;;;4974473;28;20026;-80
2024/01/30 00:19:44;;;;;;;5.72;2.72;;;-1.80;99.90;;;;;;4970691;28;20113;-79
2024/01/30 00:22:10;;;;;;;5.38;2.60;;;-1.80;99.90;;;;;;5060502;28;20151;-79
2024/01/30 00:24:36;;;;;;;5.43;2.60;;;-1.80;99.90;;;;;;4993250;28;20036;-79
2024/01/30 00:27:01;;;;;;;4.15;2.50;;;-1.80;99.90;;;;;;4992524;28;20041;-78
2024/01/30 00:29:30;;;;;;;5.30;2.50;;;-1.80;99.90;;;;;;5058353;28;20388;-78
2024/01/30 00:31:55;;;;;;;4.30;2.33;;;-1.80;99.90;;;;;;4992935;28;20023;-78
2024/01/30 00:34:21;;;;;;;9.80;2.95;;;-1.90;99.90;;;;;;4975221;28;20117;-78
2024/01/30 00:36:47;;;;;;;6.13;2.92;;;-1.90;99.90;;;;;;4959218;28;20088;-78
2024/01/30 00:39:15;;;;;;;4.43;2.53;;;-1.90;99.90;;;;;;4975435;28;20026;-78
2024/01/30 00:41:41;;;;;;;4.82;2.40;;;-2.00;99.90;;;;;;4992881;28;20087;-78
2024/01/30 00:44:06;;;;;;;6.15;2.78;;;-2.10;99.90;;;;;;4992570;28;20042;-78
2024/01/30 00:46:32;;;;;;;4.93;2.92;;;-2.10;99.90;;;;;;4992332;28;20392;-79
2024/01/30 00:48:58;;;;;;;4.78;3.03;;;-2.10;99.90;;;;;;4975140;28;20031;-78
2024/01/30 00:51:24;;;;;;;4.82;2.83;;;-2.10;99.90;;;;;;4975336;28;20034;-79
2024/01/30 00:53:49;;;;;;;5.20;3.08;;;-2.10;99.90;;;;;;4974948;28;20054;-79
2024/01/30 00:56:18;;;;;;;4.05;2.35;;;-2.10;99.90;;;;;;4959132;28;20037;-79
2024/01/30 00:58:43;;;;;;;4.78;2.83;;;-2.10;99.90;;;;;;4975473;28;20043;-79
2024/01/30 01:01:09;;;;;;;8.38;3.05;;;-2.10;99.90;;;;;;4958085;28;20039;-79
2024/01/30 01:03:35;;;;;;;4.93;2.53;;;-2.10;99.90;;;;;;4973331;28;20027;-79
2024/01/30 01:06:00;;;;;;;7.15;2.42;;;-2.10;99.90;;;;;;4974825;28;20038;-80
2024/01/30 01:08:26;;;;;;;5.15;2.10;;;-2.00;99.90;;;;;;5042892;28;20057;-79
2024/01/30 01:10:52;;;;;;;3.70;2.15;;;-2.10;99.90;;;;;;4992115;28;20422;-78
2024/01/30 01:13:18;;;;;;;3.83;1.80;;;-2.00;99.90;;;;;;5059030;28;20449;-79
2024/01/30 01:15:43;;;;;;;4.22;1.88;;;-2.00;99.90;;;;;;5059338;28;20073;-79
2024/01/30 01:18:09;;;;;;;4.10;2.15;;;-2.10;99.90;;;;;;5059090;28;20038;-79
2024/01/30 01:20:34;;;;;;;3.58;1.85;;;-2.10;99.90;;;;;;5058802;28;20027;-79
2024/01/30 01:23:00;;;;;;;4.32;2.05;;;-2.10;99.90;;;;;;5059392;28;20046;-79
2024/01/30 01:25:26;;;;;;;4.95;1.95;;;-2.10;99.90;;;;;;5058194;28;20034;-79
2024/01/30 01:27:52;;;;;;;3.00;1.55;;;-2.10;99.90;;;;;;5013034;28;20027;-79
2024/01/30 01:30:25;;;;;;;5.13;2.00;;;-2.10;99.90;;;;;;4992797;28;20026;-79
2024/01/30 01:32:54;;;;;;;4.03;2.08;;;-2.10;99.90;;;;;;4975410;28;20062;-79
2024/01/30 01:35:24;;;;;;;3.15;1.85;;;-2.10;99.90;;;;;;4992861;28;20023;-78
2024/01/30 01:37:59;;;;;;;6.28;3.60;;;-2.10;99.90;;;;;;4975425;28;20034;-79
2024/01/30 01:40:25;;;;;;;5.97;3.50;;;-2.10;99.90;;;;;;4993289;28;20027;-79
2024/01/30 01:42:52;;;;;;;5.78;2.88;;;-2.20;99.90;;;;;;4959470;28;20049;-79
2024/01/30 01:45:19;;;;;;;4.93;2.88;;;-2.20;99.90;;;;;;4974865;28;20481;-79
2024/01/30 01:47:47;;;;;;;5.45;2.90;;;-2.20;99.90;;;;;;4974028;28;20042;-78
2024/01/30 01:50:13;;;;;;;4.60;2.63;;;-2.20;99.90;;;;;;4992391;28;20027;-79
2024/01/30 01:52:41;;;;;;;8.10;2.78;;;-2.20;99.90;;;;;;4975786;28;20034;-79
2024/01/30 01:55:07;;;;;;;6.07;2.75;;;-2.20;99.90;;;;;;4992498;28;20115;-79
2024/01/30 01:57:33;;;;;;;6.57;2.78;;;-2.20;99.90;;;;;;4975231;28;20563;-79
2024/01/30 02:00:01;;;;;;;6.60;2.45;;;-2.30;99.90;;;;;;4991849;28;20388;-78
2024/01/30 02:02:30;;;;;;;4.32;2.00;;;-2.30;99.90;;;;;;4974460;28;20034;-78
2024/01/30 02:04:57;;;;;;;4.22;2.47;;;-2.30;99.90;;;;;;4991537;28;20019;-78
2024/01/30 02:07:23;;;;;;;3.85;2.05;;;-2.30;99.90;;;;;;4958309;28;20033;-78
2024/01/30 02:09:48;;;;;;;5.72;2.58;;;-2.30;99.90;;;;;;4974558;28;20027;-78
2024/01/30 02:12:14;;;;;;;3.60;2.08;;;-2.30;99.90;;;;;;4958346;28;20027;-78
2024/01/30 02:14:47;;;;;;;4.72;1.83;;;-2.40;99.90;;;;;;4957915;28;20027;-78
2024/01/30 02:17:13;;;;;;;3.35;1.80;;;-2.40;99.90;;;;;;4957816;28;20034;-78
2024/01/30 02:19:40;;;;;;;4.47;1.83;;;-2.50;99.90;;;;;;4973981;28;20031;-79
2024/01/30 02:22:07;;;;;;;4.82;1.80;;;-2.50;99.90;;;;;;4991480;28;20038;-78
2024/01/30 02:24:32;;;;;;;3.67;1.80;;;-2.50;99.90;;;;;;4991557;28;20438;-79
2024/01/30 02:26:58;;;;;;;4.28;2.05;;;-2.50;99.90;;;;;;4991244;28;20027;-79
2024/01/30 02:29:24;;;;;;;4.15;2.20;;;-2.50;99.90;;;;;;4974042;28;20123;-79
2024/01/30 02:31:49;;;;;;;4.45;2.00;;;-2.50;99.90;;;;;;4976941;28;20488;-78
2024/01/30 02:34:15;;;;;;;5.50;2.53;;;-2.60;99.90;;;;;;4978146;28;20488;-79
2024/01/30 02:36:44;;;;;;;6.28;3.55;;;-2.60;99.90;;;;;;4961335;28;20488;-78
2024/01/30 02:39:10;;;;;;;6.50;2.78;;;-2.60;99.90;;;;;;4995471;28;20037;-79
2024/01/30 02:41:36;;;;;;;6.47;2.45;;;-2.70;99.90;;;;;;4995170;28;20101;-79
2024/01/30 02:44:05;;;;;;;4.60;2.63;;;-2.60;99.90;;;;;;4977465;28;20057;-79
2024/01/30 02:46:31;;;;;;;5.53;3.00;;;-2.60;99.90;;;;;;4993703;28;20438;-79
2024/01/30 02:48:57;;;;;;;6.07;3.05;;;-2.60;99.90;;;;;;4995037;28;20026;-78
2024/01/30 02:51:22;;;;;;;6.93;2.70;;;-2.60;99.90;;;;;;4994948;28;20072;-79
2024/01/30 02:53:48;;;;;;;6.72;3.55;;;-2.60;99.90;;;;;;4994663;28;20027;-78
2024/01/30 02:56:14;;;;;;;8.30;4.30;;;-2.60;99.90;;;;;;4977461;28;20034;-78
2024/01/30 02:58:40;;;;;;;9.77;4.13;;;-2.60;99.90;;;;;;4994355;28;20061;-79
2024/01/30 03:01:06;;;;;;;11.70;4.10;;;-2.70;99.90;;;;;;4994375;28;20492;-79
2024/01/30 03:03:34;;;;;;;5.72;2.88;;;-2.60;99.90;;;;;;4994633;28;20076;-78
2024/01/30 03:05:59;;;;;;;5.25;2.50;;;-2.70;99.90;;;;;;4977090;28;20109;-78
2024/01/30 03:08:25;;;;;;;5.15;2.25;;;-2.70;99.90;;;;;;4976848;28;20049;-78
2024/01/30 03:10:50;;;;;;;4.07;1.95;;;-2.70;99.90;;;;;;4995144;28;20038;-78
2024/01/30 03:13:16;;;;;;;4.30;1.67;;;-2.70;99.90;;;;;;4977277;28;20044;-79
2024/01/30 03:15:42;;;;;;;2.97;1.80;;;-2.70;99.90;;;;;;4994893;28;20030;-78
2024/01/30 03:18:08;;;;;;;3.38;1.77;;;-2.70;99.90;;;;;;4994396;28;20026;-78
2024/01/30 03:20:34;;;;;;;3.47;1.60;;;-2.70;99.90;;;;;;4977240;28;20121;-78
2024/01/30 03:23:00;;;;;;;7.82;3.08;;;-2.70;99.90;;;;;;4994194;28;20526;-78
2024/01/30 03:25:26;;;;;;;8.15;3.78;;;-2.70;99.90;;;;;;4994101;28;20480;-78
2024/01/30 03:27:51;;;;;;;7.65;3.88;;;-2.80;99.90;;;;;;4960652;28;20042;-78
2024/01/30 03:30:17;;;;;;;6.75;2.90;;;-2.80;99.90;;;;;;4993976;28;20027;-78
2024/01/30 03:32:43;;;;;;;4.60;2.40;;;-2.80;99.90;;;;;;4994415;28;20485;-78
2024/01/30 03:35:09;;;;;;;3.42;2.13;;;-2.80;99.90;;;;;;4976839;28;20405;-78
2024/01/30 03:37:35;;;;;;;6.25;1.98;;;-2.80;99.90;;;;;;4994815;28;20023;-78
2024/01/30 03:40:02;;;;;;;2.85;1.60;;;-2.80;99.90;;;;;;4994500;28;20027;-78
2024/01/30 03:42:28;;;;;;;3.35;1.92;;;-2.90;99.90;;;;;;4993038;28;20026;-78
2024/01/30 03:44:54;;;;;;;3.63;1.73;;;-2.90;99.90;;;;;;4975414;28;20652;-79
2024/01/30 03:47:21;;;;;;;3.67;1.90;;;-2.90;99.90;;;;;;4960532;28;20043;-78
2024/01/30 03:49:47;;;;;;;3.38;1.70;;;-2.90;99.90;;;;;;4994379;28;20118;-78
2024/01/30 03:52:12;;;;;;;4.50;2.00;;;-2.90;99.90;;;;;;4977707;28;20046;-78
2024/01/30 03:54:38;;;;;;;4.97;2.10;;;-2.90;99.90;;;;;;4976261;28;20023;-78
2024/01/30 03:57:05;;;;;;;4.57;2.28;;;-2.90;99.90;;;;;;4975946;28;20038;-79
2024/01/30 03:59:31;;;;;;;3.30;1.90;;;-2.90;99.90;;;;;;4994181;28;20057;-79
2024/01/30 04:01:56;;;;;;;5.15;1.88;;;-2.90;99.90;;;;;;4976644;28;20031;-78
2024/01/30 04:04:23;;;;;;;3.92;2.17;;;-2.90;99.90;;;;;;4976557;28;20048;-78
2024/01/30 04:06:48;;;;;;;5.30;2.10;;;-2.90;99.90;;;;;;4993967;28;20095;-78
2024/01/30 04:09:14;;;;;;;3.88;1.60;;;-2.90;99.90;;;;;;4976683;28;20034;-78
2024/01/30 04:11:40;;;;;;;3.10;1.60;;;-2.90;99.90;;;;;;4976399;28;20055;-78
2024/01/30 04:14:06;;;;;;;3.92;1.80;;;-2.90;99.90;;;;;;4960595;28;20039;-78
2024/01/30 04:16:32;;;;;;;3.15;1.40;;;-2.90;99.90;;;;;;4983558;28;20053;-78
2024/01/30 04:18:58;;;;;;;2.83;1.75;;;-2.90;99.90;;;;;;4956964;28;20027;-78
2024/01/30 04:21:24;;;;;;;5.28;2.00;;;-2.90;99.90;;;;;;4961857;28;20035;-78
2024/01/30 04:23:51;;;;;;;3.90;1.95;;;-3.00;99.90;;;;;;4993607;28;20392;-78
2024/01/30 04:26:16;;;;;;;3.10;1.67;;;-3.10;99.90;;;;;;4992962;28;20080;-78
2024/01/30 04:28:44;;;;;;;3.50;1.60;;;-3.10;99.90;;;;;;4976327;28;20023;-78
2024/01/30 04:31:09;;;;;;;3.20;1.63;;;-3.10;99.90;;;;;;4993148;28;20026;-80
2024/01/30 04:33:35;;;;;;;3.42;1.80;;;-3.20;99.90;;;;;;4992996;28;20387;-78
2024/01/30 04:36:01;;;;;;;3.40;1.73;;;-3.20;99.90;;;;;;4993139;28;20034;-78
2024/01/30 04:38:27;;;;;;;3.97;1.92;;;-3.20;99.90;;;;;;5041610;28;20121;-79
2024/01/30 04:40:52;;;;;;;2.97;1.50;;;-3.20;99.90;;;;;;5044405;28;20045;-79
2024/01/30 04:43:19;;;;;;;4.35;1.75;;;-3.20;99.90;;;;;;4994547;28;20037;-79
2024/01/30 04:45:44;;;;;;;4.50;1.60;;;-3.20;99.90;;;;;;5061516;28;20079;-79
2024/01/30 04:48:10;;;;;;;2.88;1.42;;;-3.20;99.90;;;;;;4994936;28;20101;-79
2024/01/30 04:50:36;;;;;;;3.47;2.00;;;-3.20;99.90;;;;;;4994418;28;20520;-78
2024/01/30 04:53:01;;;;;;;3.30;1.40;;;-3.20;99.90;;;;;;4993466;28;20037;-78
2024/01/30 04:55:27;;;;;;;4.65;2.05;;;-3.20;99.90;;;;;;4976670;28;20022;-78
2024/01/30 04:57:53;;;;;;;4.93;2.20;;;-3.20;99.90;;;;;;4993251;28;20496;-78
2024/01/30 05:00:19;;;;;;;4.05;2.28;;;-3.20;99.90;;;;;;4993237;28;20033;-79
2024/01/30 05:02:44;;;;;;;3.58;2.13;;;-3.20;99.90;;;;;;4976001;28;20117;-78
2024/01/30 05:05:10;;;;;;;3.78;2.05;;;-3.20;99.90;;;;;;4975559;28;20034;-78
2024/01/30 05:07:36;;;;;;;2.85;1.67;;;-3.20;99.90;;;;;;4975525;28;20441;-78
2024/01/30 05:10:03;;;;;;;3.08;1.88;;;-3.20;99.90;;;;;;4976747;28;20446;-78
2024/01/30 05:12:28;;;;;;;4.05;2.38;;;-3.20;99.90;;;;;;4993047;28;20380;-79
2024/01/30 05:14:54;;;;;;;3.45;1.80;;;-3.30;99.90;;;;;;4993288;28;20022;-78
2024/01/30 05:17:20;;;;;;;3.05;1.70;;;-3.30;99.90;;;;;;4993297;28;20026;-78
2024/01/30 05:19:46;;;;;;;3.50;1.73;;;-3.40;99.90;;;;;;4992945;28;20030;-78
2024/01/30 05:22:15;;;;;;;4.30;2.00;;;-3.30;99.90;;;;;;4977784;28;20092;-78
2024/01/30 05:24:44;;;;;;;3.78;2.05;;;-3.40;99.90;;;;;;4993289;28;20111;-78
2024/01/30 05:27:10;;;;;;;3.15;1.65;;;-3.40;99.90;;;;;;4993757;28;20044;-78
2024/01/30 05:29:35;;;;;;;2.80;1.52;;;-3.40;99.90;;;;;;4992745;28;20019;-78
2024/01/30 05:32:02;;;;;;;3.88;1.80;;;-3.40;99.90;;;;;;4960849;28;20083;-79
2024/01/30 05:34:27;;;;;;;4.95;1.88;;;-3.40;99.90;;;;;;4974569;28;20089;-79
2024/01/30 05:36:53;;;;;;;3.83;1.83;;;-3.40;99.90;;;;;;4974206;28;20422;-79
2024/01/30 05:39:18;;;;;;;4.40;1.98;;;-3.40;99.90;;;;;;4991457;28;20431;-78
2024/01/30 05:41:44;;;;;;;3.38;1.90;;;-3.40;99.90;;;;;;4974441;28;20514;-78
2024/01/30 05:44:10;;;;;;;4.38;1.95;;;-3.50;99.90;;;;;;4991452;28;20510;-79
2024/01/30 05:46:36;;;;;;;6.38;2.42;;;-3.50;99.90;;;;;;4991307;28;20118;-78
2024/01/30 05:49:01;;;;;;;5.43;2.58;;;-3.50;99.90;;;;;;4993221;28;20026;-78
2024/01/30 05:51:28;;;;;;;3.63;1.90;;;-3.50;99.90;;;;;;4995700;28;20027;-78
2024/01/30 05:53:54;;;;;;;7.32;3.78;;;-3.50;99.90;;;;;;4963714;28;20030;-78
2024/01/30 05:56:19;;;;;;;11.07;4.35;;;-3.50;99.90;;;;;;4976987;28;20039;-78
2024/01/30 05:58:45;;;;;;;9.20;3.90;;;-3.50;99.90;;;;;;4990876;28;20042;-79
2024/01/30 06:01:11;;;;;;;9.00;4.15;;;-3.50;99.90;;;;;;4974486;28;20049;-78
2024/01/30 06:03:37;;;;;;;9.18;3.80;;;-3.60;99.90;;;;;;4992111;28;20035;-79
2024/01/30 06:06:02;;;;;;;5.80;3.15;;;-3.50;99.90;;;;;;4992913;28;20061;-78
2024/01/30 06:08:28;;;;;;;5.70;3.45;;;-3.50;99.90;;;;;;4995215;28;20030;-79
2024/01/30 06:10:54;;;;;;;5.97;3.67;;;-3.40;99.90;;;;;;4995750;28;20369;-80
2024/01/30 06:13:20;;;;;;;6.93;3.05;;;-3.30;99.90;;;;;;4981231;28;20053;-80
2024/01/30 06:15:46;;;;;;;7.38;4.30;;;-3.30;99.90;;;;;;4999069;28;20060;-80
2024/01/30 06:18:11;;;;;;;11.02;4.50;;;-3.20;99.90;;;;;;4999123;28;20030;-80
2024/01/30 06:20:37;;;;;;;7.05;3.83;;;-3.20;99.90;;;;;;4998692;28;20038;-80
2024/01/30 06:23:03;;;;;;;11.55;4.88;;;-3.10;99.90;;;;;;4998657;28;20026;-80
2024/01/30 06:25:28;;;;;;;11.05;5.65;;;-3.10;99.90;;;;;;4998800;28;20030;-80
2024/01/30 06:27:54;;;;;;;28.40;11.00;;;-3.00;99.90;;;;;;4981061;28;20027;-80
2024/01/30 06:30:20;;;;;;;32.90;13.27;;;-3.10;99.90;;;;;;4998373;28;20030;-80
2024/01/30 06:32:45;;;;;;;27.98;11.48;;;-3.20;99.90;;;;;;4998461;28;20483;-80
2024/01/30 06:35:12;;;;;;;28.92;11.52;;;-3.30;99.90;;;;;;4999074;28;20027;-80
2024/01/30 06:37:38;;;;;;;24.30;10.25;;;-3.30;99.90;;;;;;4998405;28;20029;-80
2024/01/30 06:40:05;;;;;;;20.25;8.60;;;-3.20;99.90;;;;;;4965244;28;20121;-80
2024/01/30 06:42:30;;;;;;;18.15;8.15;;;-3.20;99.90;;;;;;4998554;28;20027;-80
2024/01/30 06:44:56;;;;;;;19.23;8.13;;;-3.20;99.90;;;;;;4964313;28;20015;-80
2024/01/30 06:47:22;;;;;;;19.98;8.43;;;-3.10;99.90;;;;;;4964372;28;20125;-80
2024/01/30 06:49:47;;;;;;;13.40;5.25;;;-3.10;99.90;;;;;;4980760;28;20033;-80
2024/01/30 06:52:14;;;;;;;12.43;4.60;;;-3.10;99.90;;;;;;4997787;28;20062;-80
2024/01/30 06:54:40;;;;;;;5.72;3.28;;;-3.10;99.90;;;;;;4997817;28;20117;-80
2024/01/30 06:57:08;;;;;;;7.80;2.80;;;-3.10;99.90;;;;;;4997464;28;20058;-80
2024/01/30 06:59:35;;;;;;;4.30;2.30;;;-3.10;99.90;;;;;;4964716;28;20069;-80
2024/01/30 07:02:00;;;;;;;5.55;2.20;;;-3.10;99.90;;;;;;4980118;28;20041;-80
2024/01/30 07:04:26;;;;;;;4.35;2.25;;;-3.10;99.90;;;;;;4979654;28;20112;-80
2024/01/30 07:06:53;;;;;;;6.50;2.63;;;-3.00;99.90;;;;;;4979274;28;20132;-80
2024/01/30 07:09:19;;;;;;;4.88;2.60;;;-3.00;99.90;;;;;;4978083;28;20039;-80
2024/01/30 07:11:44;;;;;;;6.82;2.50;;;-2.90;99.90;;;;;;4980296;28;20105;-80
2024/01/30 07:14:10;;;;;;;6.47;3.38;;;-2.90;99.90;;;;;;4997574;28;20030;-80
2024/01/30 07:16:36;;;;;;;7.00;3.08;;;-2.90;99.90;;;;;;4979401;28;20041;-80
2024/01/30 07:19:02;;;;;;;4.72;2.80;;;-2.90;99.90;;;;;;4977185;28;20035;-80
2024/01/30 07:21:28;;;;;;;6.25;3.53;;;-2.80;99.90;;;;;;4961223;28;20034;-79
2024/01/30 07:23:57;;;;;;;7.63;3.53;;;-2.90;99.90;;;;;;4995018;28;20026;-80
2024/01/30 07:26:23;;;;;;;5.88;3.38;;;-2.80;99.90;;;;;;4994401;28;20056;-80
2024/01/30 07:28:50;;;;;;;6.38;4.05;;;-2.80;99.90;;;;;;4977413;28;20031;-80
2024/01/30 07:31:15;;;;;;;7.72;3.83;;;-2.80;99.90;;;;;;4945475;28;20508;-80
2024/01/30 07:33:41;;;;;;;8.75;4.20;;;-2.80;99.90;;;;;;4973588;28;20035;-79
2024/01/30 07:36:07;;;;;;;9.45;4.28;;;-2.80;99.90;;;;;;4980605;28;20062;-80
2024/01/30 07:38:33;;;;;;;8.68;4.70;;;-2.70;99.90;;;;;;4994537;28;20041;-80
2024/01/30 07:40:58;;;;;;;8.27;4.80;;;-2.70;99.90;;;;;;4976937;28;20031;-80
2024/01/30 07:43:24;;;;;;;8.07;4.97;;;-2.70;99.90;;;;;;4961402;28;20069;-80
2024/01/30 07:45:50;;;;;;;6.90;4.47;;;-2.70;99.90;;;;;;4976741;28;20441;-80
2024/01/30 07:48:16;;;;;;;7.75;4.72;;;-2.60;99.90;;;;;;4994888;28;20053;-80
2024/01/30 07:50:41;;;;;;;8.23;4.80;;;-2.60;99.90;;;;;;4978101;28;20034;-80
2024/01/30 07:53:07;;;;;;;9.13;5.20;;;-2.50;99.90;;;;;;4976404;28;20030;-80
2024/01/30 07:55:48;;;;;;;11.23;5.68;;;-2.50;99.90;;;;;;4994746;28;20040;-80
2024/01/30 07:58:14;;;;;;;9.60;4.95;;;-2.50;99.90;;;;;;4979145;28;20523;-80
2024/01/30 08:00:39;;;;;;;8.63;4.00;;;-2.50;99.90;;;;;;4976727;28;20042;-80
2024/01/30 08:03:05;;;;;;;10.07;5.85;;;-2.40;99.90;;;;;;4994031;28;20041;-80
2024/01/30 08:05:31;;;;;;;10.35;5.28;;;-2.40;99.90;;;;;;4995335;28;20042;-80
2024/01/30 08:07:56;;;;;;;10.10;4.80;;;-2.40;99.90;;;;;;4961442;28;20032;-81
2024/01/30 08:10:22;;;;;;;6.63;4.18;;;-2.40;99.90;;;;;;4960735;28;20022;-80
2024/01/30 08:12:48;;;;;;;8.98;4.82;;;-2.30;99.90;;;;;;4993409;28;20027;-80
2024/01/30 08:15:13;;;;;;;8.80;4.60;;;-2.30;99.90;;;;;;4993900;28;20030;-81
2024/01/30 08:17:39;;;;;;;5.97;3.28;;;-2.30;99.90;;;;;;4976239;28;20492;-81
2024/01/30 08:20:08;;;;;;;6.35;3.95;;;-2.20;99.90;;;;;;4975488;28;20095;-81
2024/01/30 08:22:33;;;;;;;7.07;4.03;;;-2.20;99.90;;;;;;4962349;28;20022;-81
2024/01/30 08:24:59;;;;;;;5.82;3.70;;;-2.20;99.90;;;;;;4978595;28;20365;-81
2024/01/30 08:27:25;;;;;;;7.47;3.35;;;-2.20;99.90;;;;;;4994740;28;20027;-82
2024/01/30 08:29:50;;;;;;;7.10;3.78;;;-2.10;99.90;;;;;;4978008;28;20030;-82
2024/01/30 08:32:16;;;;;;;7.53;3.80;;;-2.10;99.90;;;;;;4961439;28;20030;-81
2024/01/30 08:34:42;;;;;;;6.57;3.83;;;-2.00;99.90;;;;;;4977779;28;20022;-82
2024/01/30 08:37:08;;;;;;;6.80;3.75;;;-2.00;99.90;;;;;;4961729;28;20030;-81
2024/01/30 08:39:33;;;;;;;9.13;5.47;;;-2.00;99.90;;;;;;4961525;28;20069;-81
2024/01/30 08:41:59;;;;;;;9.88;4.57;;;-1.90;99.90;;;;;;4977889;28;20484;-82
2024/01/30 08:44:25;;;;;;;10.82;5.43;;;-1.80;99.90;;;;;;4978037;28;20111;-82
2024/01/30 08:46:50;;;;;;;10.75;5.25;;;-1.70;99.90;;;;;;4961498;28;20399;-82
2024/01/30 08:49:16;;;;;;;9.98;5.13;;;-1.60;99.90;;;;;;4961379;28;20030;-82
2024/01/30 08:51:42;;;;;;;10.25;4.88;;;-1.50;99.90;;;;;;4977396;28;20023;-81
2024/01/30 08:54:08;;;;;;;7.03;3.60;;;-1.50;99.90;;;;;;4980263;28;20037;-81
2024/01/30 08:56:33;;;;;;;11.95;4.35;;;-1.40;99.90;;;;;;4977205;28;20042;-81
2024/01/30 08:58:59;;;;;;;11.32;4.22;;;-1.30;99.90;;;;;;4960701;28;20054;-82
2024/01/30 09:01:26;;;;;;;9.02;4.50;;;-1.30;99.90;;;;;;4961166;28;20039;-82
2024/01/30 09:03:52;;;;;;;11.27;5.05;;;-1.20;99.90;;;;;;4994674;28;20026;-82
2024/01/30 09:06:17;;;;;;;9.25;5.22;;;-1.10;99.90;;;;;;4977213;28;20447;-82
2024/01/30 09:08:43;;;;;;;13.35;6.20;;;-1.00;99.90;;;;;;4976916;28;20038;-82
2024/01/30 09:11:13;;;;;;;18.50;7.20;;;-0.90;99.90;;;;;;4961195;28;20520;-82
2024/01/30 09:13:39;;;;;;;17.23;6.17;;;-0.80;99.90;;;;;;4977359;28;20027;-82
2024/01/30 09:16:05;;;;;;;15.35;7.05;;;-0.70;99.90;;;;;;4976578;28;20109;-82
2024/01/30 09:18:31;;;;;;;11.82;5.93;;;-0.70;99.90;;;;;;4976078;28;20026;-81
2024/01/30 09:20:57;;;;;;;19.50;7.88;;;-0.60;99.90;;;;;;4992646;28;20030;-81
2024/01/30 09:23:22;;;;;;;22.00;7.60;;;-0.50;99.90;;;;;;4993098;28;20058;-81
2024/01/30 09:25:48;;;;;;;16.27;7.78;;;-0.40;99.90;;;;;;4956036;28;20084;-81
2024/01/30 09:28:14;;;;;;;16.13;7.45;;;-0.30;99.90;;;;;;5049557;28;20024;-82
2024/01/30 09:30:40;;;;;;;24.33;9.52;;;-0.20;99.90;;;;;;5026071;28;20027;-82
2024/01/30 09:33:06;;;;;;;18.83;7.88;;;-0.20;99.90;;;;;;4959154;28;20037;-81
2024/01/30 09:35:33;;;;;;;14.23;7.22;;;-0.10;99.90;;;;;;4992662;28;20034;-81
2024/01/30 09:37:59;;;;;;;9.73;5.13;;;-0.10;99.90;;;;;;4992524;28;20030;-81
2024/01/30 09:40:25;;;;;;;13.20;5.35;;;0.00;99.90;;;;;;4992021;28;20400;-81
2024/01/30 09:42:51;;;;;;;10.68;4.63;;;0.10;99.90;;;;;;4975173;28;20034;-81
2024/01/30 09:45:23;;;;;;;12.57;4.90;;;0.20;99.90;;;;;;4975773;28;20037;-81
2024/01/30 09:47:49;;;;;;;9.77;4.85;;;0.30;99.90;;;;;;4956161;28;20031;-81
2024/01/30 09:50:16;;;;;;;9.40;5.00;;;0.40;99.90;;;;;;4973533;28;20034;-81
2024/01/30 09:52:43;;;;;;;8.93;4.57;;;0.50;99.90;;;;;;4976473;28;20057;-81
2024/01/30 09:55:09;;;;;;;9.30;4.82;;;0.60;99.90;;;;;;4974859;28;20111;-81
2024/01/30 09:57:36;;;;;;;11.93;4.95;;;0.70;99.90;;;;;;5045190;28;20064;-81
2024/01/30 10:00:04;;;;;;;12.43;5.60;;;0.80;99.90;;;;;;4992458;28;20070;-81
2024/01/30 10:02:31;;;;;;;10.50;5.22;;;0.90;99.90;;;;;;4974499;28;20106;-81
2024/01/30 10:04:57;;;;;;;8.02;4.55;;;1.00;99.90;;;;;;4959460;28;20030;-81
2024/01/30 10:07:23;;;;;;;10.45;4.85;;;1.10;99.90;;;;;;4975636;28;20045;-81
2024/01/30 10:09:49;;;;;;;9.32;5.03;;;1.30;99.90;;;;;;4992086;28;20026;-81
2024/01/30 10:12:15;;;;;;;11.70;4.63;;;1.30;99.90;;;;;;4974997;28;20038;-81
2024/01/30 10:14:41;;;;;;;9.60;4.72;;;1.40;99.90;;;;;;4992771;28;20034;-81
2024/01/30 10:17:11;;;;;;;9.57;4.13;;;1.50;99.90;;;;;;4958992;28;20046;-81
2024/01/30 10:19:41;;;;;;;9.68;4.43;;;1.60;99.90;;;;;;4985712;28;20109;-81
2024/01/30 10:22:07;;;;;;;9.93;3.70;;;1.80;99.90;;;;;;5057848;28;20026;-81
2024/01/30 10:24:36;;;;;;;12.90;4.70;;;1.90;99.90;;;;;;4992123;28;20033;-81
2024/01/30 10:27:02;;;;;;;9.05;4.68;;;2.00;99.90;;;;;;4974892;28;20031;-81
2024/01/30 10:29:29;;;;;;;7.32;3.72;;;2.10;99.90;;;;;;4992175;28;20023;-81
2024/01/30 10:32:01;;;;;;;8.15;3.38;;;2.30;99.90;;;;;;5059517;28;20531;-81
2024/01/30 10:34:27;;;;;;;8.40;3.20;;;2.30;99.90;;;;;;5051762;28;20030;-81
2024/01/30 10:37:12;;;;;;;6.68;3.30;;;2.40;99.90;;;;;;5038046;28;20024;-81
2024/01/30 10:39:39;;;;;;;6.07;3.50;;;2.50;99.90;;;;;;5095769;28;20017;-81
2024/01/30 10:42:06;;;;;;;10.68;3.67;;;2.60;99.90;;;;;;5095645;28;20025;-81
2024/01/30 10:45:05;;;;;;;7.13;3.50;;;2.70;99.90;;;;;;5076920;28;20035;-81
2024/01/30 10:47:33;;;;;;;6.50;2.90;;;2.80;99.90;;;;;;5076797;28;20058;-81
2024/01/30 10:50:00;;;;;;;5.03;2.17;;;2.90;99.90;;;;;;5035527;28;20026;-81
2024/01/30 10:52:27;;;;;;;5.13;2.08;;;3.00;99.90;;;;;;4977729;28;20026;-81
2024/01/30 10:54:54;;;;;;;3.97;2.10;;;3.10;99.90;;;;;;4976875;28;20026;-81
2024/01/30 10:57:23;;;;;;;4.03;2.47;;;3.20;99.90;;;;;;4976712;28;20091;-81
2024/01/30 10:59:52;;;;;;;7.03;3.33;;;3.30;99.90;;;;;;4977264;28;20027;-81
2024/01/30 11:02:19;;;;;;;7.13;3.13;;;3.40;99.90;;;;;;4978020;28;20031;-81
2024/01/30 11:04:46;;;;;;;7.57;3.03;;;3.50;99.90;;;;;;4978482;28;20030;-81
2024/01/30 11:07:16;;;;;;;5.43;2.90;;;3.60;99.90;;;;;;4978227;28;20069;-81
2024/01/30 11:10:08;;;;;;;5.07;2.72;;;3.60;99.90;;;;;;4996629;28;20080;-81
2024/01/30 11:12:43;;;;;;;6.82;3.20;;;3.70;99.90;;;;;;4997008;28;20019;-81
2024/01/30 11:15:11;;;;;;;8.80;3.17;;;3.80;99.90;;;;;;4997099;28;20036;-81
2024/01/30 11:17:50;;;;;;;6.80;3.83;;;3.90;99.90;;;;;;4996482;28;20484;-80
2024/01/30 11:20:27;;;;;;;10.48;4.20;;;3.90;99.90;;;;;;4995975;28;20421;-81
2024/01/30 11:22:56;;;;;;;9.68;3.72;;;4.00;99.90;;;;;;4978868;28;20022;-81
2024/01/30 11:25:23;;;;;;;11.77;3.20;;;4.20;99.90;;;;;;4978951;28;20053;-81
2024/01/30 11:27:54;;;;;;;6.88;3.30;;;4.30;99.90;;;;;;4978464;28;20058;-81
2024/01/30 11:30:30;;;;;;;7.45;3.33;;;4.40;99.90;;;;;;4978915;28;20050;-81
2024/01/30 11:33:00;;;;;;;8.80;3.33;;;4.50;99.90;;;;;;4978530;28;20030;-81
2024/01/30 11:35:26;;;;;;;11.95;3.90;;;4.60;99.90;;;;;;4978441;28;20065;-81
2024/01/30 11:37:52;;;;;;;7.57;3.03;;;4.70;99.90;;;;;;4960360;28;20058;-81
2024/01/30 11:40:18;;;;;;;7.10;3.00;;;4.80;99.90;;;;;;4976488;28;20026;-81
2024/01/30 11:42:45;;;;;;;4.80;2.70;;;4.90;99.90;;;;;;4976415;28;20117;-81
2024/01/30 11:45:11;;;;;;;4.82;2.35;;;5.00;99.90;;;;;;4960330;28;20506;-81
2024/01/30 11:47:40;;;;;;;6.93;2.70;;;5.20;99.90;;;;;;4960252;28;20038;-81
2024/01/30 11:50:06;;;;;;;4.57;2.78;;;5.30;99.90;;;;;;4994773;28;20097;-81
2024/01/30 11:52:34;;;;;;;6.28;2.50;;;5.40;99.90;;;;;;4976419;28;20042;-81
2024/01/30 11:55:00;;;;;;;4.75;1.98;;;5.60;99.90;;;;;;4993904;28;20072;-81
2024/01/30 11:57:27;;;;;;;8.23;2.30;;;5.70;99.90;;;;;;4976265;28;20034;-81
2024/01/30 11:59:52;;;;;;;3.88;1.88;;;5.80;99.90;;;;;;4960487;28;20034;-81
2024/01/30 12:02:18;;;;;;;5.97;2.03;;;6.00;99.90;;;;;;4993432;28;20083;-81
2024/01/30 12:04:44;;;;;;;8.02;2.45;;;6.00;99.90;;;;;;4993587;28;20027;-81
2024/01/30 12:07:11;;;;;;;5.35;2.15;;;6.20;99.90;;;;;;4993682;28;20038;-82
2024/01/30 12:09:36;;;;;;;3.80;2.08;;;6.20;99.90;;;;;;4976457;28;20030;-82
2024/01/30 12:12:02;;;;;;;5.47;2.10;;;6.30;99.90;;;;;;4960305;28;20034;-82
2024/01/30 12:14:28;;;;;;;3.97;1.90;;;6.30;99.90;;;;;;4976031;28;20116;-82
2024/01/30 12:16:54;;;;;;;4.03;1.50;;;6.40;99.90;;;;;;4960350;28;20105;-82
2024/01/30 12:19:26;;;;;;;5.18;2.10;;;6.50;99.90;;;;;;4976160;28;20455;-82
2024/01/30 12:21:58;;;;;;;4.78;1.60;;;6.70;99.90;;;;;;4976048;28;20041;-82
2024/01/30 12:24:25;;;;;;;4.25;1.80;;;6.80;99.90;;;;;;4975858;28;20491;-82
2024/01/30 12:26:51;;;;;;;4.55;1.50;;;6.90;99.90;;;;;;4960281;28;20102;-82
2024/01/30 12:29:17;;;;;;;2.92;1.65;;;7.00;99.90;;;;;;4960547;28;20044;-82
2024/01/30 12:31:44;;;;;;;4.00;1.65;;;7.10;99.90;;;;;;4960409;28;20113;-82
2024/01/30 12:34:13;;;;;;;8.73;1.85;;;7.20;99.90;;;;;;4961184;28;20057;-82
2024/01/30 12:36:39;;;;;;;5.75;2.42;;;7.30;99.90;;;;;;4977002;28;20470;-82
2024/01/30 12:39:04;;;;;;;6.20;1.98;;;7.40;99.90;;;;;;4977468;28;20053;-82
2024/01/30 12:41:30;;;;;;;7.88;3.17;;;7.50;99.90;;;;;;4976440;28;20109;-82
2024/01/30 12:43:59;;;;;;;5.82;1.80;;;7.50;99.90;;;;;;4975934;28;20041;-82